sensor_id;sensor_type;location;lat;lon;timestamp;P1;durP1;ratioP1;P2;durP2;ratioP2
74347;SDS011;62778;50.406;10.008;2023-02-21T00:00:49;13.45;;;6.15;;
74347;SDS011;62778;50.406;10.008;2023-02-21T00:02:03;14.75;;;6.78;;
74347;SDS011;62778;50.406;10.008;2023-02-21T00:03:17;14.00;;;6.15;;
74347;SDS011;62778;50.406;10.008;2023-02-21T00:04:31;14.38;;;7.30;;
74347;SDS011;62778;50.406;10.008;2023-02-21T00:05:45;16.77;;;7.63;;
74347;SDS011;62778;50.406;10.008;2023-02-21T00:06:59;16.67;;;8.00;;
74347;SDS011;62778;50.406;10.008;2023-02-21T00:08:13;14.10;;;6.93;;
74347;SDS011;62778;50.406;10.008;2023-02-21T00:09:27;13.48;;;6.85;;
74347;SDS011;62778;50.406;10.008;2023-02-21T00:10:41;13.10;;;6.22;;
74347;SDS011;62778;50.406;10.008;2023-02-21T00:11:55;15.33;;;7.27;;
74347;SDS011;62778;50.406;10.008;2023-02-21T00:13:09;13.82;;;6.53;;
74347;SDS011;62778;50.406;10.008;2023-02-21T00:14:23;12.65;;;6.50;;
74347;SDS011;62778;50.406;10.008;2023-02-21T00:15:37;14.45;;;7.10;;
74347;SDS011;62778;50.406;10.008;2023-02-21T00:16:51;15.70;;;7.93;;
74347;SDS011;62778;50.406;10.008;2023-02-21T00:18:04;14.77;;;7.57;;
74347;SDS011;62778;50.406;10.008;2023-02-21T00:19:18;14.52;;;6.70;;
74347;SDS011;62778;50.406;10.008;2023-02-21T00:20:32;12.57;;;5.88;;
74347;SDS011;62778;50.406;10.008;2023-02-21T00:21:46;15.98;;;7.28;;
74347;SDS011;62778;50.406;10.008;2023-02-21T00:23:00;15.88;;;8.57;;
74347;SDS011;62778;50.406;10.008;2023-02-21T00:24:14;13.47;;;7.20;;
74347;SDS011;62778;50.406;10.008;2023-02-21T00:25:30;15.68;;;7.93;;
74347;SDS011;62778;50.406;10.008;2023-02-21T00:26:44;14.40;;;8.38;;
74347;SDS011;62778;50.406;10.008;2023-02-21T00:27:59;15.70;;;7.03;;
74347;SDS011;62778;50.406;10.008;2023-02-21T00:29:14;14.32;;;6.50;;
74347;SDS011;62778;50.406;10.008;2023-02-21T00:30:27;17.02;;;7.93;;
74347;SDS011;62778;50.406;10.008;2023-02-21T00:31:41;13.25;;;7.28;;
74347;SDS011;62778;50.406;10.008;2023-02-21T00:32:55;14.25;;;6.57;;
74347;SDS011;62778;50.406;10.008;2023-02-21T00:34:09;14.35;;;7.43;;
74347;SDS011;62778;50.406;10.008;2023-02-21T00:35:25;17.52;;;9.70;;
74347;SDS011;62778;50.406;10.008;2023-02-21T00:36:39;19.03;;;9.53;;
74347;SDS011;62778;50.406;10.008;2023-02-21T00:37:53;18.92;;;10.38;;
74347;SDS011;62778;50.406;10.008;2023-02-21T00:39:08;15.93;;;7.57;;
74347;SDS011;62778;50.406;10.008;2023-02-21T00:40:27;17.63;;;8.20;;
74347;SDS011;62778;50.406;10.008;2023-02-21T00:41:41;16.40;;;8.45;;
74347;SDS011;62778;50.406;10.008;2023-02-21T00:42:55;20.17;;;10.05;;
74347;SDS011;62778;50.406;10.008;2023-02-21T00:44:09;17.73;;;8.93;;
74347;SDS011;62778;50.406;10.008;2023-02-21T00:45:24;17.92;;;9.10;;
74347;SDS011;62778;50.406;10.008;2023-02-21T00:46:38;16.77;;;9.10;;
74347;SDS011;62778;50.406;10.008;2023-02-21T00:47:52;15.90;;;8.15;;
74347;SDS011;62778;50.406;10.008;2023-02-21T00:49:07;17.60;;;8.60;;
74347;SDS011;62778;50.406;10.008;2023-02-21T00:50:24;17.13;;;8.73;;
74347;SDS011;62778;50.406;10.008;2023-02-21T00:51:38;17.85;;;8.73;;
74347;SDS011;62778;50.406;10.008;2023-02-21T00:52:56;16.95;;;8.68;;
74347;SDS011;62778;50.406;10.008;2023-02-21T00:54:10;16.77;;;8.95;;
74347;SDS011;62778;50.406;10.008;2023-02-21T00:55:24;19.92;;;10.95;;
74347;SDS011;62778;50.406;10.008;2023-02-21T00:56:38;18.75;;;9.40;;
74347;SDS011;62778;50.406;10.008;2023-02-21T00:57:53;16.88;;;7.97;;
74347;SDS011;62778;50.406;10.008;2023-02-21T00:59:07;17.25;;;8.45;;
74347;SDS011;62778;50.406;10.008;2023-02-21T01:00:22;17.98;;;8.75;;
74347;SDS011;62778;50.406;10.008;2023-02-21T01:01:37;19.67;;;9.97;;
74347;SDS011;62778;50.406;10.008;2023-02-21T01:02:52;20.42;;;9.73;;
74347;SDS011;62778;50.406;10.008;2023-02-21T01:04:06;20.13;;;9.98;;
74347;SDS011;62778;50.406;10.008;2023-02-21T01:05:20;18.13;;;9.55;;
74347;SDS011;62778;50.406;10.008;2023-02-21T01:06:34;17.48;;;8.80;;
74347;SDS011;62778;50.406;10.008;2023-02-21T01:07:51;20.80;;;11.38;;
74347;SDS011;62778;50.406;10.008;2023-02-21T01:09:05;19.02;;;9.60;;
74347;SDS011;62778;50.406;10.008;2023-02-21T01:10:19;21.17;;;10.25;;
74347;SDS011;62778;50.406;10.008;2023-02-21T01:11:33;20.63;;;9.60;;
74347;SDS011;62778;50.406;10.008;2023-02-21T01:12:47;16.40;;;8.20;;
74347;SDS011;62778;50.406;10.008;2023-02-21T01:14:02;16.87;;;8.90;;
74347;SDS011;62778;50.406;10.008;2023-02-21T01:15:16;22.50;;;11.30;;
74347;SDS011;62778;50.406;10.008;2023-02-21T01:16:31;21.50;;;11.25;;
74347;SDS011;62778;50.406;10.008;2023-02-21T01:17:45;18.40;;;9.35;;
74347;SDS011;62778;50.406;10.008;2023-02-21T01:18:59;19.17;;;8.95;;
74347;SDS011;62778;50.406;10.008;2023-02-21T01:20:13;20.60;;;10.90;;
74347;SDS011;62778;50.406;10.008;2023-02-21T01:21:28;20.13;;;10.85;;
74347;SDS011;62778;50.406;10.008;2023-02-21T01:22:42;15.75;;;8.10;;
74347;SDS011;62778;50.406;10.008;2023-02-21T01:24:00;17.13;;;8.73;;
74347;SDS011;62778;50.406;10.008;2023-02-21T01:25:14;22.70;;;11.55;;
74347;SDS011;62778;50.406;10.008;2023-02-21T01:26:32;20.43;;;10.13;;
74347;SDS011;62778;50.406;10.008;2023-02-21T01:27:46;20.73;;;10.25;;
74347;SDS011;62778;50.406;10.008;2023-02-21T01:29:00;18.65;;;8.68;;
74347;SDS011;62778;50.406;10.008;2023-02-21T01:30:15;21.65;;;11.60;;
74347;SDS011;62778;50.406;10.008;2023-02-21T01:31:29;20.70;;;11.07;;
74347;SDS011;62778;50.406;10.008;2023-02-21T01:32:43;24.02;;;14.50;;
74347;SDS011;62778;50.406;10.008;2023-02-21T01:33:57;22.20;;;11.40;;
74347;SDS011;62778;50.406;10.008;2023-02-21T01:35:11;18.17;;;9.15;;
74347;SDS011;62778;50.406;10.008;2023-02-21T01:36:25;22.98;;;11.70;;
74347;SDS011;62778;50.406;10.008;2023-02-21T01:37:40;23.83;;;11.65;;
74347;SDS011;62778;50.406;10.008;2023-02-21T01:38:54;18.73;;;9.27;;
74347;SDS011;62778;50.406;10.008;2023-02-21T01:40:08;24.77;;;14.15;;
74347;SDS011;62778;50.406;10.008;2023-02-21T01:41:27;21.00;;;11.20;;
74347;SDS011;62778;50.406;10.008;2023-02-21T01:42:41;22.27;;;12.60;;
74347;SDS011;62778;50.406;10.008;2023-02-21T01:44:02;23.55;;;12.35;;
74347;SDS011;62778;50.406;10.008;2023-02-21T01:46:34;23.30;;;13.60;;
74347;SDS011;62778;50.406;10.008;2023-02-21T01:47:48;20.10;;;10.25;;
74347;SDS011;62778;50.406;10.008;2023-02-21T01:49:12;19.00;;;9.25;;
74347;SDS011;62778;50.406;10.008;2023-02-21T01:50:28;17.30;;;8.77;;
74347;SDS011;62778;50.406;10.008;2023-02-21T01:51:44;21.40;;;11.10;;
74347;SDS011;62778;50.406;10.008;2023-02-21T01:52:58;18.45;;;9.93;;
74347;SDS011;62778;50.406;10.008;2023-02-21T01:54:13;19.02;;;9.60;;
74347;SDS011;62778;50.406;10.008;2023-02-21T01:55:28;18.98;;;10.27;;
74347;SDS011;62778;50.406;10.008;2023-02-21T01:56:42;19.73;;;10.48;;
74347;SDS011;62778;50.406;10.008;2023-02-21T01:57:56;21.08;;;10.88;;
74347;SDS011;62778;50.406;10.008;2023-02-21T01:59:10;18.48;;;10.20;;
74347;SDS011;62778;50.406;10.008;2023-02-21T02:00:24;16.50;;;7.93;;
74347;SDS011;62778;50.406;10.008;2023-02-21T02:02:21;15.27;;;8.25;;
74347;SDS011;62778;50.406;10.008;2023-02-21T02:03:36;19.37;;;10.53;;
74347;SDS011;62778;50.406;10.008;2023-02-21T02:04:50;16.50;;;8.73;;
74347;SDS011;62778;50.406;10.008;2023-02-21T02:06:06;19.40;;;10.30;;
74347;SDS011;62778;50.406;10.008;2023-02-21T02:07:21;18.65;;;10.38;;
74347;SDS011;62778;50.406;10.008;2023-02-21T02:08:36;19.13;;;10.15;;
74347;SDS011;62778;50.406;10.008;2023-02-21T02:09:50;16.23;;;7.40;;
74347;SDS011;62778;50.406;10.008;2023-02-21T02:13:11;18.38;;;9.57;;
74347;SDS011;62778;50.406;10.008;2023-02-21T02:15:42;17.35;;;7.85;;
74347;SDS011;62778;50.406;10.008;2023-02-21T02:16:43;19.65;;;10.45;;
74347;SDS011;62778;50.406;10.008;2023-02-21T02:18:18;18.07;;;9.53;;
74347;SDS011;62778;50.406;10.008;2023-02-21T02:23:28;16.00;;;7.82;;
74347;SDS011;62778;50.406;10.008;2023-02-21T02:32:00;19.13;;;10.57;;
74347;SDS011;62778;50.406;10.008;2023-02-21T02:34:58;16.13;;;7.95;;
74347;SDS011;62778;50.406;10.008;2023-02-21T02:36:27;15.13;;;7.40;;
74347;SDS011;62778;50.406;10.008;2023-02-21T02:40:07;15.68;;;7.07;;
74347;SDS011;62778;50.406;10.008;2023-02-21T02:41:15;17.25;;;9.68;;
74347;SDS011;62778;50.406;10.008;2023-02-21T02:42:36;16.98;;;8.25;;
74347;SDS011;62778;50.406;10.008;2023-02-21T02:44:49;17.70;;;9.10;;
74347;SDS011;62778;50.406;10.008;2023-02-21T02:45:49;16.92;;;8.63;;
74347;SDS011;62778;50.406;10.008;2023-02-21T02:46:47;17.17;;;10.15;;
74347;SDS011;62778;50.406;10.008;2023-02-21T02:47:43;16.30;;;8.15;;
74347;SDS011;62778;50.406;10.008;2023-02-21T02:48:41;17.30;;;8.85;;
74347;SDS011;62778;50.406;10.008;2023-02-21T02:49:39;19.40;;;10.20;;
74347;SDS011;62778;50.406;10.008;2023-02-21T02:50:35;20.48;;;11.40;;
74347;SDS011;62778;50.406;10.008;2023-02-21T02:51:32;15.98;;;8.25;;
74347;SDS011;62778;50.406;10.008;2023-02-21T02:52:28;18.92;;;10.73;;
74347;SDS011;62778;50.406;10.008;2023-02-21T02:53:25;18.43;;;9.50;;
74347;SDS011;62778;50.406;10.008;2023-02-21T02:54:21;21.38;;;12.15;;
74347;SDS011;62778;50.406;10.008;2023-02-21T02:55:59;19.80;;;10.90;;
74347;SDS011;62778;50.406;10.008;2023-02-21T02:56:43;18.38;;;10.23;;
74347;SDS011;62778;50.406;10.008;2023-02-21T02:57:39;21.67;;;11.70;;
74347;SDS011;62778;50.406;10.008;2023-02-21T02:59:54;20.25;;;10.30;;
74347;SDS011;62778;50.406;10.008;2023-02-21T03:00:56;20.07;;;11.47;;
74347;SDS011;62778;50.406;10.008;2023-02-21T03:03:23;22.42;;;11.50;;
74347;SDS011;62778;50.406;10.008;2023-02-21T03:06:04;21.10;;;12.32;;
74347;SDS011;62778;50.406;10.008;2023-02-21T03:09:05;20.20;;;10.23;;
74347;SDS011;62778;50.406;10.008;2023-02-21T03:09:58;20.40;;;11.20;;
74347;SDS011;62778;50.406;10.008;2023-02-21T03:11:13;21.30;;;11.68;;
74347;SDS011;62778;50.406;10.008;2023-02-21T03:14:55;22.08;;;13.02;;
74347;SDS011;62778;50.406;10.008;2023-02-21T03:15:56;20.70;;;10.75;;
74347;SDS011;62778;50.406;10.008;2023-02-21T03:16:56;21.83;;;13.15;;
74347;SDS011;62778;50.406;10.008;2023-02-21T03:17:58;21.98;;;11.70;;
74347;SDS011;62778;50.406;10.008;2023-02-21T03:19:56;23.95;;;12.35;;
74347;SDS011;62778;50.406;10.008;2023-02-21T03:20:56;21.05;;;10.85;;
74347;SDS011;62778;50.406;10.008;2023-02-21T03:22:00;18.63;;;9.48;;
74347;SDS011;62778;50.406;10.008;2023-02-21T03:22:59;19.17;;;9.82;;
74347;SDS011;62778;50.406;10.008;2023-02-21T03:23:57;21.10;;;10.63;;
74347;SDS011;62778;50.406;10.008;2023-02-21T03:24:55;19.83;;;10.68;;
74347;SDS011;62778;50.406;10.008;2023-02-21T03:25:52;19.40;;;11.02;;
74347;SDS011;62778;50.406;10.008;2023-02-21T03:26:50;19.48;;;10.68;;
74347;SDS011;62778;50.406;10.008;2023-02-21T03:27:49;17.13;;;9.30;;
74347;SDS011;62778;50.406;10.008;2023-02-21T03:28:46;19.23;;;10.20;;
74347;SDS011;62778;50.406;10.008;2023-02-21T03:29:41;22.65;;;11.48;;
74347;SDS011;62778;50.406;10.008;2023-02-21T03:30:38;22.37;;;11.90;;
74347;SDS011;62778;50.406;10.008;2023-02-21T03:31:38;18.40;;;10.70;;
74347;SDS011;62778;50.406;10.008;2023-02-21T03:32:42;21.73;;;11.88;;
74347;SDS011;62778;50.406;10.008;2023-02-21T03:33:41;18.33;;;9.55;;
74347;SDS011;62778;50.406;10.008;2023-02-21T03:34:37;18.83;;;10.33;;
74347;SDS011;62778;50.406;10.008;2023-02-21T03:35:32;19.70;;;9.05;;
74347;SDS011;62778;50.406;10.008;2023-02-21T03:36:28;20.20;;;10.73;;
74347;SDS011;62778;50.406;10.008;2023-02-21T03:38:32;20.88;;;9.70;;
74347;SDS011;62778;50.406;10.008;2023-02-21T03:39:27;18.20;;;8.63;;
74347;SDS011;62778;50.406;10.008;2023-02-21T03:40:24;21.10;;;12.40;;
74347;SDS011;62778;50.406;10.008;2023-02-21T03:41:22;19.42;;;9.57;;
74347;SDS011;62778;50.406;10.008;2023-02-21T03:42:18;17.43;;;9.23;;
74347;SDS011;62778;50.406;10.008;2023-02-21T03:43:13;19.50;;;11.00;;
74347;SDS011;62778;50.406;10.008;2023-02-21T03:44:08;15.67;;;8.00;;
74347;SDS011;62778;50.406;10.008;2023-02-21T03:45:04;18.00;;;8.77;;
74347;SDS011;62778;50.406;10.008;2023-02-21T03:45:59;19.67;;;10.17;;
74347;SDS011;62778;50.406;10.008;2023-02-21T03:46:54;18.45;;;8.52;;
74347;SDS011;62778;50.406;10.008;2023-02-21T03:47:50;19.30;;;9.37;;
74347;SDS011;62778;50.406;10.008;2023-02-21T03:48:45;18.43;;;9.60;;
74347;SDS011;62778;50.406;10.008;2023-02-21T03:49:40;19.30;;;9.90;;
74347;SDS011;62778;50.406;10.008;2023-02-21T03:50:36;18.73;;;9.97;;
74347;SDS011;62778;50.406;10.008;2023-02-21T03:51:31;18.98;;;10.27;;
74347;SDS011;62778;50.406;10.008;2023-02-21T03:52:26;19.73;;;10.77;;
74347;SDS011;62778;50.406;10.008;2023-02-21T03:53:21;16.37;;;8.87;;
74347;SDS011;62778;50.406;10.008;2023-02-21T03:54:17;19.07;;;9.77;;
74347;SDS011;62778;50.406;10.008;2023-02-21T03:55:12;20.05;;;10.70;;
74347;SDS011;62778;50.406;10.008;2023-02-21T03:56:08;20.90;;;11.17;;
74347;SDS011;62778;50.406;10.008;2023-02-21T03:57:03;19.80;;;10.63;;
74347;SDS011;62778;50.406;10.008;2023-02-21T03:57:58;17.03;;;8.47;;
74347;SDS011;62778;50.406;10.008;2023-02-21T03:58:54;16.35;;;8.40;;
74347;SDS011;62778;50.406;10.008;2023-02-21T03:59:49;18.73;;;9.27;;
74347;SDS011;62778;50.406;10.008;2023-02-21T04:00:44;19.13;;;9.93;;
74347;SDS011;62778;50.406;10.008;2023-02-21T04:01:40;19.60;;;10.30;;
74347;SDS011;62778;50.406;10.008;2023-02-21T04:02:36;15.57;;;8.00;;
74347;SDS011;62778;50.406;10.008;2023-02-21T04:03:31;13.83;;;7.00;;
74347;SDS011;62778;50.406;10.008;2023-02-21T04:04:27;14.88;;;7.10;;
74347;SDS011;62778;50.406;10.008;2023-02-21T04:05:22;17.47;;;8.23;;
74347;SDS011;62778;50.406;10.008;2023-02-21T04:06:17;16.90;;;8.40;;
74347;SDS011;62778;50.406;10.008;2023-02-21T04:07:13;19.67;;;8.80;;
74347;SDS011;62778;50.406;10.008;2023-02-21T04:08:09;17.70;;;9.02;;
74347;SDS011;62778;50.406;10.008;2023-02-21T04:09:05;16.03;;;7.80;;
74347;SDS011;62778;50.406;10.008;2023-02-21T04:10:00;18.50;;;9.48;;
74347;SDS011;62778;50.406;10.008;2023-02-21T04:10:55;18.90;;;8.83;;
74347;SDS011;62778;50.406;10.008;2023-02-21T04:11:51;18.37;;;8.27;;
74347;SDS011;62778;50.406;10.008;2023-02-21T04:12:46;16.88;;;8.57;;
74347;SDS011;62778;50.406;10.008;2023-02-21T04:13:42;14.37;;;7.13;;
74347;SDS011;62778;50.406;10.008;2023-02-21T04:14:38;18.80;;;9.15;;
74347;SDS011;62778;50.406;10.008;2023-02-21T04:15:33;15.43;;;7.63;;
74347;SDS011;62778;50.406;10.008;2023-02-21T04:16:29;15.53;;;7.17;;
74347;SDS011;62778;50.406;10.008;2023-02-21T04:17:24;17.65;;;8.63;;
74347;SDS011;62778;50.406;10.008;2023-02-21T04:18:20;16.27;;;8.53;;
74347;SDS011;62778;50.406;10.008;2023-02-21T04:19:15;15.53;;;8.47;;
74347;SDS011;62778;50.406;10.008;2023-02-21T04:20:10;17.07;;;8.37;;
74347;SDS011;62778;50.406;10.008;2023-02-21T04:21:06;18.70;;;10.95;;
74347;SDS011;62778;50.406;10.008;2023-02-21T04:22:01;18.67;;;11.30;;
74347;SDS011;62778;50.406;10.008;2023-02-21T04:22:56;16.67;;;9.80;;
74347;SDS011;62778;50.406;10.008;2023-02-21T04:23:52;16.87;;;9.27;;
74347;SDS011;62778;50.406;10.008;2023-02-21T04:24:47;18.85;;;9.13;;
74347;SDS011;62778;50.406;10.008;2023-02-21T04:25:42;20.37;;;11.07;;
74347;SDS011;62778;50.406;10.008;2023-02-21T04:26:38;16.97;;;8.43;;
74347;SDS011;62778;50.406;10.008;2023-02-21T04:27:33;17.40;;;8.68;;
74347;SDS011;62778;50.406;10.008;2023-02-21T04:28:29;18.03;;;10.13;;
74347;SDS011;62778;50.406;10.008;2023-02-21T04:29:24;18.17;;;9.53;;
74347;SDS011;62778;50.406;10.008;2023-02-21T04:30:19;19.13;;;9.90;;
74347;SDS011;62778;50.406;10.008;2023-02-21T04:31:15;20.13;;;10.20;;
74347;SDS011;62778;50.406;10.008;2023-02-21T04:32:11;21.80;;;10.15;;
74347;SDS011;62778;50.406;10.008;2023-02-21T04:33:06;19.53;;;9.00;;
74347;SDS011;62778;50.406;10.008;2023-02-21T04:34:02;15.03;;;7.33;;
74347;SDS011;62778;50.406;10.008;2023-02-21T04:34:57;18.23;;;8.93;;
74347;SDS011;62778;50.406;10.008;2023-02-21T04:35:52;16.85;;;7.45;;
74347;SDS011;62778;50.406;10.008;2023-02-21T04:36:48;20.10;;;10.00;;
74347;SDS011;62778;50.406;10.008;2023-02-21T04:37:44;18.33;;;9.37;;
74347;SDS011;62778;50.406;10.008;2023-02-21T04:38:39;19.52;;;9.57;;
74347;SDS011;62778;50.406;10.008;2023-02-21T04:39:34;20.13;;;9.27;;
74347;SDS011;62778;50.406;10.008;2023-02-21T04:40:30;19.17;;;9.23;;
74347;SDS011;62778;50.406;10.008;2023-02-21T04:41:25;21.23;;;10.50;;
74347;SDS011;62778;50.406;10.008;2023-02-21T04:42:21;21.10;;;11.20;;
74347;SDS011;62778;50.406;10.008;2023-02-21T04:43:16;19.93;;;10.83;;
74347;SDS011;62778;50.406;10.008;2023-02-21T04:44:11;22.30;;;11.87;;
74347;SDS011;62778;50.406;10.008;2023-02-21T04:45:07;17.98;;;8.65;;
74347;SDS011;62778;50.406;10.008;2023-02-21T04:46:02;15.80;;;8.33;;
74347;SDS011;62778;50.406;10.008;2023-02-21T04:46:58;19.33;;;9.93;;
74347;SDS011;62778;50.406;10.008;2023-02-21T04:47:53;17.27;;;7.97;;
74347;SDS011;62778;50.406;10.008;2023-02-21T04:48:49;16.50;;;7.53;;
74347;SDS011;62778;50.406;10.008;2023-02-21T04:49:45;19.10;;;10.45;;
74347;SDS011;62778;50.406;10.008;2023-02-21T04:50:45;18.90;;;10.07;;
74347;SDS011;62778;50.406;10.008;2023-02-21T04:51:41;19.13;;;9.83;;
74347;SDS011;62778;50.406;10.008;2023-02-21T04:52:36;20.52;;;9.57;;
74347;SDS011;62778;50.406;10.008;2023-02-21T04:53:31;15.40;;;8.43;;
74347;SDS011;62778;50.406;10.008;2023-02-21T04:54:27;18.00;;;8.87;;
74347;SDS011;62778;50.406;10.008;2023-02-21T04:55:25;18.58;;;9.02;;
74347;SDS011;62778;50.406;10.008;2023-02-21T04:56:21;16.02;;;8.18;;
74347;SDS011;62778;50.406;10.008;2023-02-21T04:57:18;18.27;;;9.10;;
74347;SDS011;62778;50.406;10.008;2023-02-21T04:58:13;19.25;;;10.13;;
74347;SDS011;62778;50.406;10.008;2023-02-21T04:59:09;16.50;;;8.17;;
74347;SDS011;62778;50.406;10.008;2023-02-21T05:00:04;19.50;;;8.90;;
74347;SDS011;62778;50.406;10.008;2023-02-21T05:01:01;21.15;;;10.85;;
74347;SDS011;62778;50.406;10.008;2023-02-21T05:01:56;18.63;;;8.63;;
74347;SDS011;62778;50.406;10.008;2023-02-21T05:02:53;16.27;;;8.25;;
74347;SDS011;62778;50.406;10.008;2023-02-21T05:03:48;16.58;;;7.78;;
74347;SDS011;62778;50.406;10.008;2023-02-21T05:04:44;21.13;;;8.77;;
74347;SDS011;62778;50.406;10.008;2023-02-21T05:05:39;21.13;;;10.67;;
74347;SDS011;62778;50.406;10.008;2023-02-21T05:06:34;22.63;;;10.20;;
74347;SDS011;62778;50.406;10.008;2023-02-21T05:07:30;18.40;;;8.95;;
74347;SDS011;62778;50.406;10.008;2023-02-21T05:08:25;21.67;;;11.80;;
74347;SDS011;62778;50.406;10.008;2023-02-21T05:09:20;20.30;;;10.03;;
74347;SDS011;62778;50.406;10.008;2023-02-21T05:10:16;23.87;;;12.87;;
74347;SDS011;62778;50.406;10.008;2023-02-21T05:11:11;20.38;;;9.95;;
74347;SDS011;62778;50.406;10.008;2023-02-21T05:12:07;17.90;;;9.07;;
74347;SDS011;62778;50.406;10.008;2023-02-21T05:13:05;19.27;;;8.15;;
74347;SDS011;62778;50.406;10.008;2023-02-21T05:14:01;21.03;;;11.03;;
74347;SDS011;62778;50.406;10.008;2023-02-21T05:14:56;19.17;;;9.47;;
74347;SDS011;62778;50.406;10.008;2023-02-21T05:15:51;21.33;;;10.57;;
74347;SDS011;62778;50.406;10.008;2023-02-21T05:16:47;19.20;;;9.45;;
74347;SDS011;62778;50.406;10.008;2023-02-21T05:17:42;20.53;;;9.93;;
74347;SDS011;62778;50.406;10.008;2023-02-21T05:18:41;18.08;;;8.93;;
74347;SDS011;62778;50.406;10.008;2023-02-21T05:19:38;21.85;;;10.50;;
74347;SDS011;62778;50.406;10.008;2023-02-21T05:20:33;19.07;;;9.87;;
74347;SDS011;62778;50.406;10.008;2023-02-21T05:21:32;20.13;;;9.60;;
74347;SDS011;62778;50.406;10.008;2023-02-21T05:22:29;24.30;;;11.43;;
74347;SDS011;62778;50.406;10.008;2023-02-21T05:23:24;21.17;;;10.57;;
74347;SDS011;62778;50.406;10.008;2023-02-21T05:24:29;21.08;;;10.25;;
74347;SDS011;62778;50.406;10.008;2023-02-21T05:25:24;21.10;;;9.50;;
74347;SDS011;62778;50.406;10.008;2023-02-21T05:26:21;21.38;;;10.13;;
74347;SDS011;62778;50.406;10.008;2023-02-21T05:27:19;19.77;;;9.93;;
74347;SDS011;62778;50.406;10.008;2023-02-21T05:28:15;19.25;;;10.30;;
74347;SDS011;62778;50.406;10.008;2023-02-21T05:29:10;18.92;;;8.48;;
74347;SDS011;62778;50.406;10.008;2023-02-21T05:30:06;19.13;;;9.77;;
74347;SDS011;62778;50.406;10.008;2023-02-21T05:31:01;20.27;;;9.20;;
74347;SDS011;62778;50.406;10.008;2023-02-21T05:31:57;23.43;;;12.37;;
74347;SDS011;62778;50.406;10.008;2023-02-21T05:32:52;21.30;;;10.53;;
74347;SDS011;62778;50.406;10.008;2023-02-21T05:33:48;22.10;;;9.87;;
74347;SDS011;62778;50.406;10.008;2023-02-21T05:34:43;19.73;;;9.70;;
74347;SDS011;62778;50.406;10.008;2023-02-21T05:35:40;18.75;;;9.52;;
74347;SDS011;62778;50.406;10.008;2023-02-21T05:36:36;20.50;;;9.73;;
74347;SDS011;62778;50.406;10.008;2023-02-21T05:37:31;22.00;;;11.35;;
74347;SDS011;62778;50.406;10.008;2023-02-21T05:38:27;20.53;;;9.23;;
74347;SDS011;62778;50.406;10.008;2023-02-21T05:39:22;21.47;;;10.00;;
74347;SDS011;62778;50.406;10.008;2023-02-21T05:40:17;20.97;;;10.03;;
74347;SDS011;62778;50.406;10.008;2023-02-21T05:41:14;23.63;;;11.55;;
74347;SDS011;62778;50.406;10.008;2023-02-21T05:42:10;21.38;;;9.85;;
74347;SDS011;62778;50.406;10.008;2023-02-21T05:43:05;21.63;;;10.53;;
74347;SDS011;62778;50.406;10.008;2023-02-21T05:44:01;25.80;;;12.47;;
74347;SDS011;62778;50.406;10.008;2023-02-21T05:44:56;21.05;;;11.38;;
74347;SDS011;62778;50.406;10.008;2023-02-21T05:45:52;20.73;;;10.17;;
74347;SDS011;62778;50.406;10.008;2023-02-21T05:46:47;23.43;;;11.13;;
74347;SDS011;62778;50.406;10.008;2023-02-21T05:47:42;24.75;;;13.32;;
74347;SDS011;62778;50.406;10.008;2023-02-21T05:48:38;23.57;;;11.03;;
74347;SDS011;62778;50.406;10.008;2023-02-21T05:49:33;18.67;;;9.53;;
74347;SDS011;62778;50.406;10.008;2023-02-21T05:50:29;21.70;;;9.83;;
74347;SDS011;62778;50.406;10.008;2023-02-21T05:51:24;21.50;;;9.52;;
74347;SDS011;62778;50.406;10.008;2023-02-21T05:52:21;23.83;;;11.52;;
74347;SDS011;62778;50.406;10.008;2023-02-21T05:53:16;25.67;;;12.27;;
74347;SDS011;62778;50.406;10.008;2023-02-21T05:54:14;25.65;;;12.55;;
74347;SDS011;62778;50.406;10.008;2023-02-21T05:55:11;22.95;;;11.20;;
74347;SDS011;62778;50.406;10.008;2023-02-21T05:56:06;22.17;;;11.83;;
74347;SDS011;62778;50.406;10.008;2023-02-21T05:57:02;21.65;;;10.10;;
74347;SDS011;62778;50.406;10.008;2023-02-21T05:58:00;19.90;;;9.30;;
74347;SDS011;62778;50.406;10.008;2023-02-21T05:58:56;20.02;;;9.07;;
74347;SDS011;62778;50.406;10.008;2023-02-21T05:59:51;22.53;;;10.37;;
74347;SDS011;62778;50.406;10.008;2023-02-21T06:00:46;21.15;;;10.13;;
74347;SDS011;62778;50.406;10.008;2023-02-21T06:01:42;23.90;;;12.33;;
74347;SDS011;62778;50.406;10.008;2023-02-21T06:02:37;23.83;;;11.40;;
74347;SDS011;62778;50.406;10.008;2023-02-21T06:03:32;24.70;;;13.80;;
74347;SDS011;62778;50.406;10.008;2023-02-21T06:04:28;19.98;;;9.68;;
74347;SDS011;62778;50.406;10.008;2023-02-21T06:05:23;21.37;;;10.90;;
74347;SDS011;62778;50.406;10.008;2023-02-21T06:06:19;19.38;;;9.60;;
74347;SDS011;62778;50.406;10.008;2023-02-21T06:07:14;23.07;;;11.50;;
74347;SDS011;62778;50.406;10.008;2023-02-21T06:08:10;23.67;;;10.88;;
74347;SDS011;62778;50.406;10.008;2023-02-21T06:09:06;20.20;;;9.63;;
74347;SDS011;62778;50.406;10.008;2023-02-21T06:10:02;21.25;;;10.98;;
74347;SDS011;62778;50.406;10.008;2023-02-21T06:10:59;20.50;;;9.75;;
74347;SDS011;62778;50.406;10.008;2023-02-21T06:11:54;24.33;;;12.70;;
74347;SDS011;62778;50.406;10.008;2023-02-21T06:12:50;23.65;;;11.85;;
74347;SDS011;62778;50.406;10.008;2023-02-21T06:13:47;24.07;;;12.13;;
74347;SDS011;62778;50.406;10.008;2023-02-21T06:14:44;23.38;;;11.77;;
74347;SDS011;62778;50.406;10.008;2023-02-21T06:15:39;17.95;;;9.70;;
74347;SDS011;62778;50.406;10.008;2023-02-21T06:16:36;19.70;;;9.90;;
74347;SDS011;62778;50.406;10.008;2023-02-21T06:17:32;20.80;;;9.95;;
74347;SDS011;62778;50.406;10.008;2023-02-21T06:18:28;22.33;;;10.95;;
74347;SDS011;62778;50.406;10.008;2023-02-21T06:19:23;20.73;;;11.07;;
74347;SDS011;62778;50.406;10.008;2023-02-21T06:20:19;21.83;;;10.30;;
74347;SDS011;62778;50.406;10.008;2023-02-21T06:21:14;18.75;;;9.98;;
74347;SDS011;62778;50.406;10.008;2023-02-21T06:22:09;17.83;;;9.10;;
74347;SDS011;62778;50.406;10.008;2023-02-21T06:23:05;17.70;;;8.90;;
74347;SDS011;62778;50.406;10.008;2023-02-21T06:24:00;21.37;;;9.73;;
74347;SDS011;62778;50.406;10.008;2023-02-21T06:24:56;22.00;;;11.68;;
74347;SDS011;62778;50.406;10.008;2023-02-21T06:25:51;18.57;;;9.33;;
74347;SDS011;62778;50.406;10.008;2023-02-21T06:26:47;19.90;;;9.52;;
74347;SDS011;62778;50.406;10.008;2023-02-21T06:27:42;18.93;;;9.80;;
74347;SDS011;62778;50.406;10.008;2023-02-21T06:28:37;17.90;;;9.90;;
74347;SDS011;62778;50.406;10.008;2023-02-21T06:29:33;19.43;;;9.47;;
74347;SDS011;62778;50.406;10.008;2023-02-21T06:30:28;20.10;;;9.70;;
74347;SDS011;62778;50.406;10.008;2023-02-21T06:31:24;20.77;;;11.05;;
74347;SDS011;62778;50.406;10.008;2023-02-21T06:32:19;17.87;;;9.10;;
74347;SDS011;62778;50.406;10.008;2023-02-21T06:33:14;20.27;;;9.87;;
74347;SDS011;62778;50.406;10.008;2023-02-21T06:34:10;19.13;;;9.68;;
74347;SDS011;62778;50.406;10.008;2023-02-21T06:35:05;18.93;;;9.77;;
74347;SDS011;62778;50.406;10.008;2023-02-21T06:36:02;21.00;;;9.70;;